Terminal Aerodrome Forecast
Issued by NWS Wilmington, OH

Current Version | Previous Version | Graphics & Text | Print | Product List | Glossary On
Versions: 1 2 3 4 5 6 7 8 9 10 11 12 13 14 15 16 17 18 19 20
610
FTUS41 KILN 171740
TAFILN
TAF
KILN 171740Z 1718/1818 19013G23KT P6SM VCSH SCT025
     FM171900 22013G23KT P6SM -SHRA VCTS SCT025 BKN035CB
      TEMPO 1719/1722 4SM -TSRA BKN025CB
     FM172200 22010KT P6SM -SHRA BKN035
     FM180700 24007KT 4SM BR BKN008
     FM181300 26012KT P6SM BKN015
     FM181700 27012G20KT P6SM BKN040=

USA.gov is the U.S. government's official web portal to all federal, state and local government web resources and services.